Time;durP1;ratioP1;P1;durP2;ratioP2;P2;SDS_P1;SDS_P2;PMS_P1;PMS_P2;Temp;Humidity;BMP_temperature;BMP_pressure;BME280_temperature;BME280_humidity;BME280_pressure;Samples;Min_cycle;Max_cycle;Signal;HPM_P1;HPM_P2
2022/09/02 00:01:29;;;;;;;;;9.00;7.25;;;;;24.31;37.60;101015.84;5072693;28;45370;-84
2022/09/02 00:03:59;;;;;;;;;8.50;7.00;;;;;24.31;36.88;101009.66;5055499;28;45387;-84
2022/09/02 00:06:26;;;;;;;;;8.50;6.50;;;;;24.28;37.29;101004.59;5038481;28;45394;-84
2022/09/02 00:08:52;;;;;;;;;8.50;7.00;;;;;24.24;37.72;101004.00;5072498;28;45810;-84
2022/09/02 00:11:21;;;;;;;;;8.50;7.00;;;;;24.27;37.95;101002.91;5039011;28;45387;-85
2022/09/02 00:13:48;;;;;;;;;9.25;8.75;;;;;24.24;37.61;101000.53;5072342;28;45333;-84
2022/09/02 00:16:13;;;;;;;;;7.50;7.00;;;;;24.22;37.41;100994.44;5056013;28;45297;-84
2022/09/02 00:18:40;;;;;;;;;7.00;6.75;;;;;24.21;37.74;101004.25;5072310;28;45416;-84
2022/09/02 00:21:06;;;;;;;;;6.75;6.75;;;;;24.17;37.92;101002.00;5038475;28;45332;-84
2022/09/02 00:23:32;;;;;;;;;6.00;5.50;;;;;24.07;38.23;100977.94;5056493;28;45407;-84
2022/09/02 00:25:58;;;;;;;;;6.75;6.75;;;;;24.12;38.42;100991.72;5072015;28;47159;-84
2022/09/02 00:28:23;;;;;;;;;8.00;6.00;;;;;24.05;38.24;100986.06;5056380;28;45388;-85
2022/09/02 00:30:49;;;;;;;;;9.50;7.25;;;;;24.03;39.26;100988.00;5037943;28;57268;-84
2022/09/02 00:33:14;;;;;;;;;6.00;6.00;;;;;23.99;38.61;100983.06;5038375;28;45337;-84
2022/09/02 00:35:41;;;;;;;;;7.25;7.25;;;;;24.01;38.40;100995.25;5038190;28;45664;-84
2022/09/02 00:38:07;;;;;;;;;7.75;7.00;;;;;24.00;38.64;100987.41;5038344;28;45416;-85
2022/09/02 00:40:34;;;;;;;;;9.50;7.75;;;;;23.98;38.64;100984.00;5038357;28;45338;-84
2022/09/02 00:42:59;;;;;;;;;8.00;7.50;;;;;23.96;39.08;100978.84;5038539;28;45333;-84
2022/09/02 00:45:24;;;;;;;;;8.00;6.50;;;;;23.90;38.66;100974.88;5055745;28;46235;-84
2022/09/02 00:47:50;;;;;;;;;6.75;6.50;;;;;23.83;38.94;100963.06;5038225;28;45279;-84
2022/09/02 00:50:18;;;;;;;;;9.50;8.00;;;;;23.88;38.82;100973.28;5037748;28;45452;-84
2022/09/02 00:52:50;;;;;;;;;7.50;7.25;;;;;23.84;38.91;100980.69;5038173;28;45463;-84
2022/09/02 00:55:20;;;;;;;;;8.00;6.25;;;;;23.84;39.82;100979.84;5037338;28;46150;-84
2022/09/02 00:57:55;;;;;;;;;8.75;8.00;;;;;23.84;38.79;100970.03;5038220;28;45837;-84
2022/09/02 01:00:27;;;;;;;;;10.00;9.00;;;;;23.82;38.70;100971.16;5021443;28;45341;-85
2022/09/02 01:02:58;;;;;;;;;10.00;8.00;;;;;23.80;38.60;100976.59;5037598;28;45563;-84
2022/09/02 01:05:25;;;;;;;;;11.50;8.00;;;;;23.76;38.97;100970.63;5037694;28;45702;-84
2022/09/02 01:07:52;;;;;;;;;7.50;7.00;;;;;23.71;39.12;100975.47;5037913;28;45341;-84
2022/09/02 01:10:20;;;;;;;;;6.50;6.50;;;;;23.64;38.94;100968.13;5038037;28;45448;-84
2022/09/02 01:12:46;;;;;;;;;9.00;8.00;;;;;23.63;39.82;100969.13;5037692;28;45440;-84
2022/09/02 01:15:13;;;;;;;;;8.00;8.00;;;;;23.63;38.94;100969.94;5037124;28;65624;-84
2022/09/02 01:17:42;;;;;;;;;9.75;8.00;;;;;23.60;38.90;100964.88;5038222;28;45759;-84
2022/09/02 01:20:12;;;;;;;;;9.50;7.50;;;;;23.59;38.60;100971.16;5037734;28;45405;-84
2022/09/02 01:22:38;;;;;;;;;6.25;6.25;;;;;23.54;38.85;100960.06;5037817;28;45254;-84
2022/09/02 01:25:11;;;;;;;;;9.25;7.50;;;;;23.56;39.08;100952.81;5037707;28;46240;-84
2022/09/02 01:27:37;;;;;;;;;8.50;6.75;;;;;23.57;39.03;100959.81;5055673;28;45820;-84
2022/09/02 01:30:04;;;;;;;;;8.25;6.75;;;;;23.55;39.30;100962.59;5037649;28;45494;-84
2022/09/02 01:32:29;;;;;;;;;9.75;9.25;;;;;23.50;41.00;100956.81;5020738;28;45290;-84
2022/09/02 01:34:55;;;;;;;;;8.00;6.50;;;;;23.56;39.20;100958.94;5037472;28;46537;-84
2022/09/02 01:37:21;;;;;;;;;7.75;7.75;;;;;23.52;39.44;100952.19;5055544;28;45384;-84
2022/09/02 01:39:47;;;;;;;;;7.25;7.00;;;;;23.53;39.42;100953.03;5020782;28;53725;-84
2022/09/02 01:42:13;;;;;;;;;9.75;9.00;;;;;23.58;39.34;100964.16;5055553;28;45452;-84
2022/09/02 01:44:42;;;;;;;;;8.00;7.00;;;;;23.59;39.34;100957.88;5037262;28;46367;-84
2022/09/02 01:47:20;;;;;;;;;9.00;9.00;;;;;23.64;39.06;100965.47;5036831;28;45358;-84
2022/09/02 01:49:46;;;;;;;;;8.50;7.75;;;;;23.67;39.05;100958.09;5037730;28;45345;-84
2022/09/02 01:52:12;;;;;;;;;10.00;8.00;;;;;23.70;39.33;100960.50;5037191;28;45329;-84
2022/09/02 01:54:38;;;;;;;;;7.50;7.50;;;;;23.70;38.86;100955.19;5020640;28;48479;-84
2022/09/02 01:57:04;;;;;;;;;10.50;7.50;;;;;23.70;38.89;100954.34;5037415;28;45374;-84
2022/09/02 01:59:29;;;;;;;;;7.00;7.00;;;;;23.66;40.14;100958.22;5054414;28;45562;-84
2022/09/02 02:01:54;;;;;;;;;8.50;8.50;;;;;23.62;39.52;100976.22;5054268;28;57371;-84
2022/09/02 02:04:21;;;;;;;;;10.50;10.00;;;;;23.48;38.87;101024.31;5069775;28;75674;-84
2022/09/02 02:06:47;;;;;;;;;13.50;11.00;;;;;23.34;39.46;101028.03;5071895;28;45823;-84
2022/09/02 02:09:15;;;;;;;;;11.25;9.75;;;;;23.32;39.02;100990.13;5057816;28;45458;-85
2022/09/02 02:11:42;;;;;;;;;9.75;9.00;;;;;23.34;40.09;100999.66;5041204;28;45302;-84
2022/09/02 02:14:07;;;;;;;;;11.00;9.00;;;;;23.23;40.10;101030.69;5040389;28;45460;-84
2022/09/02 02:16:33;;;;;;;;;9.00;9.00;;;;;23.16;42.44;100999.31;5057671;28;45352;-84
2022/09/02 02:18:58;;;;;;;;;10.75;10.00;;;;;23.06;42.68;101029.34;5074641;28;45361;-84
2022/09/02 02:21:24;;;;;;;;;12.75;9.00;;;;;22.85;43.19;101019.38;5040436;28;45535;-84
2022/09/02 02:23:49;;;;;;;;;11.75;9.50;;;;;22.74;44.54;101011.41;5040399;28;45500;-84
2022/09/02 02:26:15;;;;;;;;;10.25;9.00;;;;;22.71;45.23;101014.28;5040351;28;45452;-84
2022/09/02 02:28:41;;;;;;;;;13.25;9.50;;;;;22.68;46.75;101017.16;5040512;28;45392;-85
2022/09/02 02:31:06;;;;;;;;;11.50;9.25;;;;;22.63;44.97;101020.16;5058489;28;45385;-84
2022/09/02 02:33:32;;;;;;;;;14.75;12.00;;;;;22.57;46.06;101024.13;5058031;28;45346;-85
2022/09/02 02:35:58;;;;;;;;;16.75;14.25;;;;;22.50;46.51;101022.03;5058495;28;45231;-85
2022/09/02 02:38:23;;;;;;;;;15.00;11.50;;;;;22.45;47.27;101011.75;5040624;28;45668;-85
2022/09/02 02:40:49;;;;;;;;;18.75;15.00;;;;;22.45;45.69;101021.53;5057614;28;59716;-86
2022/09/02 02:43:14;;;;;;;;;17.75;15.50;;;;;22.45;45.54;101019.72;5057761;28;46552;-84
2022/09/02 02:45:40;;;;;;;;;21.00;19.25;;;;;22.43;46.64;101016.34;5057769;28;45345;-85
2022/09/02 02:48:05;;;;;;;;;26.00;21.50;;;;;22.45;46.75;101011.75;5023393;28;45295;-84
2022/09/02 02:50:31;;;;;;;;;23.00;17.50;;;;;22.46;46.99;101020.59;5040466;28;45469;-84
2022/09/02 02:52:56;;;;;;;;;20.50;17.25;;;;;22.47;47.33;101016.97;5022626;28;72313;-85
2022/09/02 02:55:23;;;;;;;;;25.00;21.50;;;;;22.44;47.84;101007.44;5039796;28;46920;-85
2022/09/02 02:57:49;;;;;;;;;19.25;18.00;;;;;22.38;46.93;101000.78;5040355;28;45365;-85
2022/09/02 03:00:19;;;;;;;;;18.25;15.00;;;;;22.38;46.50;100997.25;5023546;28;45447;-85
2022/09/02 03:02:44;;;;;;;;;13.25;13.00;;;;;22.40;47.04;100998.03;5057870;28;47232;-85
2022/09/02 03:05:12;;;;;;;;;17.00;15.75;;;;;22.39;47.66;100997.16;5058490;28;45297;-85
2022/09/02 03:07:37;;;;;;;;;20.00;16.75;;;;;22.37;47.20;100995.59;5040084;28;45337;-85
2022/09/02 03:10:07;;;;;;;;;16.50;13.75;;;;;22.36;47.14;100989.44;5039057;28;62401;-85
2022/09/02 03:12:33;;;;;;;;;13.25;13.25;;;;;22.32;47.40;100972.06;5040070;28;46101;-85
2022/09/02 03:14:58;;;;;;;;;11.50;11.50;;;;;22.37;47.26;100985.81;5057506;28;45342;-84
2022/09/02 03:17:24;;;;;;;;;14.00;12.75;;;;;22.39;48.04;100980.41;5039956;28;45353;-85
2022/09/02 03:19:49;;;;;;;;;13.50;13.00;;;;;22.36;47.81;100978.84;5039780;28;45506;-85
2022/09/02 03:22:15;;;;;;;;;13.75;11.75;;;;;22.36;47.54;100968.25;5057726;28;45436;-85
2022/09/02 03:24:40;;;;;;;;;15.25;12.75;;;;;22.35;47.24;100978.94;5023055;28;49461;-85
2022/09/02 03:27:05;;;;;;;;;11.50;11.00;;;;;22.28;47.87;100970.59;5057207;28;60606;-84
2022/09/02 03:29:31;;;;;;;;;13.50;13.50;;;;;22.20;48.66;100965.84;5056458;28;62414;-85
2022/09/02 03:31:56;;;;;;;;;14.50;10.75;;;;;22.20;48.12;100971.13;5038244;28;68574;-85
2022/09/02 03:34:21;;;;;;;;;12.25;10.00;;;;;22.15;48.26;100965.31;5038881;28;67169;-85
2022/09/02 03:36:47;;;;;;;;;9.50;9.50;;;;;22.14;48.29;100974.25;5056497;28;65566;-85
2022/09/02 03:39:13;;;;;;;;;11.25;11.25;;;;;22.12;48.59;100970.00;5039349;28;45532;-85
2022/09/02 03:41:40;;;;;;;;;11.50;10.75;;;;;22.03;50.12;100968.91;5055747;28;73527;-85
2022/09/02 03:44:06;;;;;;;;;13.25;10.00;;;;;22.04;49.46;100966.13;5038657;28;45382;-85
2022/09/02 03:46:31;;;;;;;;;12.50;11.75;;;;;22.07;49.05;100964.22;5038919;28;45405;-85
2022/09/02 03:48:57;;;;;;;;;13.50;12.00;;;;;22.06;49.25;100960.72;5038432;28;46584;-85
2022/09/02 03:51:23;;;;;;;;;14.50;12.75;;;;;22.06;49.41;100951.91;5056683;28;46460;-85
2022/09/02 03:53:49;;;;;;;;;11.25;11.00;;;;;22.05;49.02;100948.44;5072799;28;45468;-85
2022/09/02 03:56:15;;;;;;;;;15.50;12.25;;;;;22.02;50.58;100952.13;5039030;28;45378;-85
2022/09/02 03:58:46;;;;;;;;;16.75;11.50;;;;;22.02;50.45;100951.28;5038597;28;45409;-84
2022/09/02 04:01:18;;;;;;;;;11.50;11.50;;;;;21.96;50.16;100943.81;5056817;28;45473;-85
2022/09/02 04:03:44;;;;;;;;;13.50;10.50;;;;;22.02;50.03;100946.84;5072240;28;45324;-84
2022/09/02 04:06:11;;;;;;;;;10.75;9.25;;;;;21.99;49.95;100941.78;5072416;27;45561;-85
2022/09/02 04:08:40;;;;;;;;;12.00;11.00;;;;;21.99;50.51;100943.56;5072913;28;45396;-85
2022/09/02 04:11:10;;;;;;;;;14.75;10.75;;;;;22.03;50.69;100951.19;5072586;28;45402;-84
2022/09/02 04:13:35;;;;;;;;;14.50;11.75;;;;;22.03;51.82;100947.69;5056504;28;45352;-85
2022/09/02 04:16:09;;;;;;;;;12.50;10.00;;;;;22.01;51.21;100949.63;5072502;28;45522;-84
2022/09/02 04:18:35;;;;;;;;;12.25;11.25;;;;;21.95;51.80;100939.44;5072292;27;45479;-84
2022/09/02 04:21:00;;;;;;;;;12.00;9.50;;;;;21.93;51.32;100936.06;5056668;28;46489;-84
2022/09/02 04:23:27;;;;;;;;;11.75;11.50;;;;;21.96;51.20;100935.84;5056413;28;45364;-85
2022/09/02 04:25:52;;;;;;;;;10.25;9.75;;;;;21.96;51.51;100925.25;5071924;28;45331;-84
2022/09/02 04:28:18;;;;;;;;;12.75;11.25;;;;;22.03;51.13;100934.44;5037345;28;45237;-85
2022/09/02 04:30:43;;;;;;;;;12.00;12.00;;;;;22.05;52.32;100932.53;5070653;28;47002;-84
2022/09/02 04:33:09;;;;;;;;;8.25;8.00;;;;;22.01;52.27;100929.25;5071890;28;45325;-84
2022/09/02 04:35:40;;;;;;;;;11.50;9.50;;;;;22.02;51.94;100940.69;5038259;28;45297;-84
2022/09/02 04:38:05;;;;;;;;;16.75;11.25;;;;;21.98;51.83;100933.94;5038001;28;45460;-84
2022/09/02 04:40:30;;;;;;;;;11.00;10.50;;;;;22.00;51.97;100938.16;5037937;28;47893;-85
2022/09/02 04:42:56;;;;;;;;;11.50;9.75;;;;;21.99;52.72;100922.34;5055023;28;66685;-82
2022/09/02 04:45:21;;;;;;;;;13.00;10.00;;;;;21.88;56.40;100927.59;5055012;28;65161;-82
2022/09/02 04:47:47;;;;;;;;;16.25;12.75;;;;;21.72;57.89;100939.34;5038175;28;45475;-84
2022/09/02 04:50:12;;;;;;;;;15.50;13.50;;;;;21.50;59.84;100955.09;5054650;28;72076;-80
2022/09/02 04:52:37;;;;;;;;;18.25;14.50;;;;;21.19;61.66;100952.78;5055021;28;69124;-81
2022/09/02 04:55:04;;;;;;;;;19.00;13.25;;;;;20.97;62.02;100952.56;5056316;28;45329;-80
2022/09/02 04:57:29;;;;;;;;;19.00;17.75;;;;;20.91;62.72;100953.00;5055726;28;45608;-80
2022/09/02 04:59:55;;;;;;;;;18.50;17.00;;;;;20.91;62.28;100943.25;5055530;28;45707;-82
2022/09/02 05:02:21;;;;;;;;;20.00;16.75;;;;;20.94;62.56;100924.53;5038270;28;45754;-80
2022/09/02 05:04:47;;;;;;;;;16.00;16.00;;;;;20.93;62.94;100924.63;5038239;28;45642;-79
2022/09/02 05:07:12;;;;;;;;;20.50;16.75;;;;;20.89;63.15;100926.66;5037665;28;45437;-80
2022/09/02 05:09:38;;;;;;;;;17.00;14.25;;;;;20.79;63.52;100901.78;5055760;28;45423;-81
2022/09/02 05:12:04;;;;;;;;;16.00;13.75;;;;;20.73;63.23;100900.44;5053842;28;67680;-80
2022/09/02 05:14:31;;;;;;;;;15.00;14.25;;;;;20.66;63.01;100909.72;5037844;28;45382;-79
2022/09/02 05:16:56;;;;;;;;;15.25;12.00;;;;;20.57;64.05;100912.97;5055758;28;45366;-80
2022/09/02 05:19:22;;;;;;;;;15.50;13.75;;;;;20.46;63.73;100911.06;5055461;28;46377;-80
2022/09/02 05:21:49;;;;;;;;;19.00;17.50;;;;;20.39;64.92;100917.69;5055591;28;45329;-79
2022/09/02 05:24:16;;;;;;;;;19.25;15.75;;;;;20.27;64.86;100912.28;5037816;28;45388;-80
2022/09/02 05:26:42;;;;;;;;;20.25;17.00;;;;;20.27;64.46;100922.88;5037211;28;45488;-80
2022/09/02 05:29:08;;;;;;;;;19.25;17.00;;;;;20.21;65.80;100912.72;5037089;28;47463;-80
2022/09/02 05:31:34;;;;;;;;;19.50;16.75;;;;;20.17;64.75;100919.16;5037138;28;45497;-80
2022/09/02 05:33:59;;;;;;;;;17.50;13.75;;;;;20.13;66.41;100914.16;5037423;28;45374;-80
2022/09/02 05:36:25;;;;;;;;;17.50;15.00;;;;;20.08;65.72;100914.47;5037380;28;45495;-80
2022/09/02 05:38:50;;;;;;;;;20.50;17.00;;;;;20.06;66.46;100919.84;5055059;28;46195;-81
2022/09/02 05:41:23;;;;;;;;;17.00;15.00;;;;;20.05;67.08;100928.72;5055065;28;45305;-80
2022/09/02 05:43:51;;;;;;;;;17.00;14.25;;;;;20.04;67.03;100931.47;5041343;28;45336;-80
2022/09/02 05:46:20;;;;;;;;;16.75;15.25;;;;;19.94;65.68;100914.53;5058909;28;45241;-80
2022/09/02 05:51:31;;;;;;;;;21.00;17.00;;;;;19.82;66.48;100914.38;5043441;28;45946;-80
2022/09/02 05:53:59;;;;;;;;;25.50;22.50;;;;;19.80;65.84;100918.06;5074166;28;45534;-82
2022/09/02 05:56:26;;;;;;;;;29.50;21.50;;;;;19.73;66.33;100915.81;5024299;28;45562;-81
2022/09/02 05:58:53;;;;;;;;;26.75;21.25;;;;;19.66;66.53;100913.66;5074065;28;45640;-81
2022/09/02 06:01:19;;;;;;;;;28.75;22.25;;;;;19.62;66.30;100910.34;5074201;28;45387;-79
2022/09/02 06:03:44;;;;;;;;;29.00;23.00;;;;;19.61;66.66;100906.00;5058610;28;45346;-80
2022/09/02 06:06:10;;;;;;;;;19.50;16.25;;;;;19.61;66.32;100908.66;5074306;27;45418;-80
2022/09/02 06:08:35;;;;;;;;;24.25;21.00;;;;;19.56;68.64;100912.53;5058079;28;46669;-80
2022/09/02 06:11:01;;;;;;;;;26.50;21.50;;;;;19.57;67.33;100916.88;5074158;28;45372;-80
2022/09/02 06:13:32;;;;;;;;;19.50;18.25;;;;;19.61;66.86;100915.72;5058427;28;45466;-80
2022/09/02 06:15:57;;;;;;;;;16.25;16.25;;;;;19.68;66.82;100915.22;5058378;28;45168;-82
2022/09/02 06:18:23;;;;;;;;;20.00;19.75;;;;;19.72;66.82;100908.88;5073083;28;70711;-81
2022/09/02 06:20:49;;;;;;;;;16.75;16.50;;;;;19.71;67.22;100911.56;5057127;28;73092;-81
2022/09/02 06:23:14;;;;;;;;;18.25;16.50;;;;;19.71;67.21;100906.28;5058190;28;45509;-81
2022/09/02 06:25:42;;;;;;;;;18.25;14.75;;;;;19.66;66.64;100905.72;5056987;28;45321;-81
2022/09/02 06:28:08;;;;;;;;;15.50;14.75;;;;;19.70;66.32;100921.25;5070906;28;45481;-81
2022/09/02 06:30:34;;;;;;;;;13.25;13.25;;;;;19.70;66.38;100923.91;5062940;28;45452;-80
2022/09/02 06:33:02;;;;;;;;;16.00;15.00;;;;;19.70;65.94;100909.84;5047468;28;45466;-79
2022/09/02 06:35:27;;;;;;;;;14.00;12.00;;;;;19.66;66.01;100901.28;5041404;28;45380;-81
2022/09/02 06:37:53;;;;;;;;;13.50;12.50;;;;;19.69;66.27;100916.94;5039624;28;46302;-80
2022/09/02 06:40:18;;;;;;;;;14.00;12.50;;;;;19.69;65.84;100919.56;5057933;28;45479;-79
2022/09/02 06:42:43;;;;;;;;;17.75;15.00;;;;;19.76;66.66;100924.50;5075219;28;69975;-80
2022/09/02 06:45:09;;;;;;;;;13.50;12.00;;;;;19.80;65.34;100924.22;5056820;28;66328;-80
2022/09/02 06:47:34;;;;;;;;;17.00;16.00;;;;;19.82;65.51;100919.66;5039718;28;46691;-81
2022/09/02 06:50:00;;;;;;;;;17.50;14.00;;;;;19.93;65.62;100929.53;5061164;28;45348;-80
2022/09/02 06:52:26;;;;;;;;;16.75;15.50;;;;;20.01;65.54;100924.59;5060737;28;66330;-79
2022/09/02 06:54:51;;;;;;;;;21.75;16.00;;;;;20.09;66.20;100918.78;5067314;28;68259;-78
2022/09/02 06:57:17;;;;;;;;;16.25;13.00;;;;;20.19;65.39;100913.75;5070819;28;47235;-80
2022/09/02 06:59:42;;;;;;;;;18.50;16.75;;;;;20.22;64.89;100913.53;5055522;28;45788;-79
2022/09/02 07:02:07;;;;;;;;;16.50;15.00;;;;;20.20;64.86;100897.78;5063779;28;51845;-80
2022/09/02 07:07:16;;;;;;;;;13.75;13.25;;;;;20.22;64.41;100900.34;5056453;28;45715;-82
2022/09/02 07:09:42;;;;;;;;;15.00;13.50;;;;;20.19;63.99;100898.75;5055781;28;45519;-80
2022/09/02 07:12:07;;;;;;;;;14.00;12.25;;;;;20.14;63.63;100910.59;5040485;28;45848;-81
2022/09/02 07:14:38;;;;;;;;;19.75;14.75;;;;;20.08;64.40;100911.84;5053758;28;45384;-82
2022/09/02 07:17:03;;;;;;;;;15.25;12.50;;;;;20.07;63.53;100910.97;5035497;28;46531;-81
2022/09/02 07:19:28;;;;;;;;;19.25;14.25;;;;;20.05;64.33;100912.03;5053200;28;57207;-80
2022/09/02 07:21:54;;;;;;;;;17.75;16.00;;;;;20.05;63.77;100918.16;5051643;28;66903;-82
2022/09/02 07:24:20;;;;;;;;;18.75;16.75;;;;;20.07;64.25;100910.13;5055023;28;45536;-82
2022/09/02 07:26:45;;;;;;;;;15.00;11.50;;;;;20.12;63.40;100915.97;5066979;27;46294;-80
2022/09/02 07:29:11;;;;;;;;;16.50;14.25;;;;;20.14;64.02;100907.94;5053716;28;47717;-80
2022/09/02 07:31:39;;;;;;;;;16.00;13.50;;;;;20.26;63.65;100899.16;5056915;28;45805;-80
2022/09/02 07:34:06;;;;;;;;;16.25;14.00;;;;;20.34;64.54;100899.53;5054392;28;45452;-81
2022/09/02 07:36:33;;;;;;;;;17.00;17.00;;;;;20.42;63.74;100901.63;5050025;28;45368;-81
2022/09/02 07:38:59;;;;;;;;;12.25;10.75;;;;;20.50;63.21;100897.53;5056835;28;45318;-80
2022/09/02 07:41:24;;;;;;;;;16.50;13.75;;;;;20.60;62.95;100905.72;5072600;28;45364;-80
2022/09/02 07:43:50;;;;;;;;;16.25;12.75;;;;;20.65;63.18;100911.53;5055836;28;61191;-79
2022/09/02 07:46:16;;;;;;;;;15.50;14.50;;;;;20.65;62.86;100905.38;5055245;28;73678;-80
2022/09/02 07:48:41;;;;;;;;;14.00;12.75;;;;;20.67;62.73;100907.00;5056633;28;45346;-80
2022/09/02 07:51:07;;;;;;;;;16.00;11.75;;;;;20.69;63.04;100915.66;5056842;28;45504;-81
2022/09/02 07:53:34;;;;;;;;;18.00;16.25;;;;;20.70;63.21;100913.84;5066447;28;45578;-81
2022/09/02 07:56:00;;;;;;;;;17.25;15.75;;;;;20.69;63.73;100912.19;5038274;28;46753;-81
2022/09/02 07:58:26;;;;;;;;;16.25;16.25;;;;;20.73;63.07;100918.06;5056560;28;45420;-81
2022/09/02 08:00:52;;;;;;;;;15.75;14.00;;;;;20.75;62.44;100922.31;5056487;28;45674;-81
2022/09/02 08:03:18;;;;;;;;;13.75;12.75;;;;;20.79;62.90;100925.59;5038166;28;54151;-81
2022/09/02 08:05:46;;;;;;;;;18.25;17.00;;;;;20.77;63.31;100928.34;5054954;28;45289;-81
2022/09/02 08:08:15;;;;;;;;;17.00;16.00;;;;;20.80;62.69;100929.94;5089144;27;45384;-81
2022/09/02 08:10:41;;;;;;;;;17.00;15.25;;;;;20.76;61.86;100939.88;5055223;28;45358;-80
2022/09/02 08:13:07;;;;;;;;;14.50;14.50;;;;;20.72;61.47;100943.69;5055370;28;45787;-81
2022/09/02 08:15:34;;;;;;;;;15.50;13.50;;;;;20.69;61.56;100942.09;5055057;28;74526;-81
2022/09/02 08:18:00;;;;;;;;;12.50;12.25;;;;;20.60;61.82;100932.16;5056029;28;45876;-80
2022/09/02 08:20:25;;;;;;;;;13.00;11.00;;;;;20.54;61.48;100947.53;5054338;28;45341;-80
2022/09/02 08:22:51;;;;;;;;;14.25;13.25;;;;;20.45;61.28;100959.59;5056250;28;45394;-81
2022/09/02 08:25:17;;;;;;;;;14.75;14.25;;;;;20.40;60.99;100977.56;5055370;28;67162;-80
2022/09/02 08:27:43;;;;;;;;;15.75;13.00;;;;;20.36;61.68;101002.53;5056196;28;46001;-80
2022/09/02 08:30:09;;;;;;;;;14.50;13.00;;;;;20.32;60.46;101012.44;5088510;27;45339;-80
2022/09/02 08:32:36;;;;;;;;;12.25;12.25;;;;;20.26;59.96;101007.53;5055862;28;45503;-80
2022/09/02 08:35:03;;;;;;;;;17.00;14.25;;;;;20.21;60.05;101009.66;5055393;28;45611;-80
2022/09/02 08:37:33;;;;;;;;;14.50;12.75;;;;;20.25;61.26;101009.34;5055922;28;45295;-81
2022/09/02 08:39:59;;;;;;;;;18.50;16.00;;;;;20.30;60.80;101017.00;5055894;28;45554;-81
2022/09/02 08:42:32;;;;;;;;;16.25;13.50;;;;;20.28;60.50;101021.50;5055828;28;45464;-80
2022/09/02 08:45:05;;;;;;;;;15.00;11.50;;;;;20.24;60.88;101023.50;5037578;28;45444;-80
2022/09/02 08:47:32;;;;;;;;;13.25;11.25;;;;;20.27;60.90;101018.03;5035237;28;45842;-80
2022/09/02 08:50:06;;;;;;;;;14.00;14.00;;;;;20.37;62.34;101015.63;5034914;28;62696;-81
2022/09/02 08:52:41;;;;;;;;;16.50;14.00;;;;;20.47;61.71;101024.66;5034244;28;45380;-80
2022/09/02 08:55:21;;;;;;;;;16.50;13.50;;;;;20.49;61.18;101008.69;5017654;28;46352;-80
2022/09/02 08:57:47;;;;;;;;;17.25;14.00;;;;;20.52;61.44;101007.63;5017916;28;45538;-80
2022/09/02 09:00:13;;;;;;;;;16.25;14.75;;;;;20.53;61.42;101007.53;5018016;28;45321;-81
2022/09/02 09:02:55;;;;;;;;;13.00;13.00;;;;;20.55;61.56;101005.63;5035180;28;45294;-81
2022/09/02 09:05:32;;;;;;;;;20.00;15.75;;;;;20.67;61.03;101012.78;5035277;28;46412;-80
2022/09/02 09:08:15;;;;;;;;;17.25;16.25;;;;;20.86;62.13;101014.19;5017696;28;45358;-80
2022/09/02 09:10:55;;;;;;;;;18.00;14.25;;;;;20.93;60.67;101006.66;5017638;28;45477;-81
2022/09/02 09:13:44;;;;;;;;;18.00;13.50;;;;;20.97;60.72;101010.78;5035538;28;45459;-81
2022/09/02 09:16:40;;;;;;;;;18.50;16.25;;;;;21.02;61.27;101006.91;5016544;28;46188;-81
2022/09/02 09:19:09;;;;;;;;;19.75;15.75;;;;;21.13;60.68;101000.00;5017687;28;45781;-80
2022/09/02 09:21:35;;;;;;;;;18.25;17.00;;;;;21.23;61.01;100991.31;5017290;28;45337;-80
2022/09/02 09:24:06;;;;;;;;;16.50;14.50;;;;;21.40;61.28;100986.66;5016675;28;68459;-80
2022/09/02 09:26:33;;;;;;;;;17.00;16.50;;;;;21.54;60.11;100991.81;5017184;28;46512;-80
2022/09/02 09:29:02;;;;;;;;;22.00;16.50;;;;;21.70;60.10;101001.34;5017306;28;45365;-80
2022/09/02 09:31:31;;;;;;;;;15.50;14.75;;;;;21.84;59.90;100980.84;5033327;28;45392;-80
2022/09/02 09:33:58;;;;;;;;;18.50;17.25;;;;;21.99;59.73;100984.19;5036783;28;45312;-81
2022/09/02 09:36:39;;;;;;;;;16.25;13.75;;;;;22.11;58.07;100979.78;5037155;28;46633;-80
2022/09/02 09:39:29;;;;;;;;;15.75;14.75;;;;;22.18;58.00;100988.13;5055184;28;45356;-80
2022/09/02 09:42:16;;;;;;;;;15.25;13.25;;;;;22.26;57.31;100985.78;5054908;28;45385;-80
2022/09/02 09:44:43;;;;;;;;;13.50;13.50;;;;;22.42;57.40;100975.72;5054516;28;45628;-80
2022/09/02 09:47:24;;;;;;;;;16.50;15.25;;;;;22.66;56.25;100972.19;5069254;27;47401;-80
2022/09/02 09:49:52;;;;;;;;;16.50;15.00;;;;;22.87;56.09;100972.34;5034824;28;45412;-80
2022/09/02 09:52:28;;;;;;;;;15.75;15.75;;;;;23.06;55.37;100974.44;5034216;28;45618;-80
2022/09/02 09:55:10;;;;;;;;;18.50;18.50;;;;;23.16;54.43;100971.91;5021568;28;45351;-79
2022/09/02 09:57:38;;;;;;;;;18.50;16.50;;;;;23.25;53.92;100960.56;5054373;28;45640;-80
2022/09/02 10:00:20;;;;;;;;;18.75;15.00;;;;;23.37;54.43;100956.94;5035923;28;45653;-79
2022/09/02 10:02:51;;;;;;;;;20.75;15.75;;;;;23.46;53.88;100960.69;5054262;28;45393;-78
2022/09/02 10:05:24;;;;;;;;;16.50;14.75;;;;;23.56;53.57;100958.13;5051892;28;45425;-79
2022/09/02 10:07:58;;;;;;;;;15.50;15.00;;;;;23.69;53.16;100968.59;5074547;28;45483;-80
2022/09/02 10:10:26;;;;;;;;;17.50;15.50;;;;;23.79;53.05;100956.28;5054953;28;45454;-79
2022/09/02 10:12:53;;;;;;;;;14.25;12.50;;;;;23.92;52.61;100953.47;5075009;27;45507;-79
2022/09/02 10:15:30;;;;;;;;;22.25;18.00;;;;;24.01;51.06;100962.50;5056062;28;45632;-79
2022/09/02 10:18:12;;;;;;;;;19.00;16.50;;;;;23.93;50.49;100961.31;5053592;28;47442;-81
2022/09/02 10:20:51;;;;;;;;;14.25;14.00;;;;;23.87;50.76;100951.19;5047944;28;45885;-80
2022/09/02 10:23:33;;;;;;;;;19.00;15.25;;;;;23.95;51.71;100948.75;5049841;28;45429;-80
2022/09/02 10:26:37;;;;;;;;;17.25;15.25;;;;;24.10;51.38;100943.13;5056820;28;45218;-82
2022/09/02 10:29:24;;;;;;;;;16.25;16.25;;;;;24.24;50.65;100945.50;5053800;28;47440;-81
2022/09/02 10:31:54;;;;;;;;;18.25;15.75;;;;;24.28;50.48;100943.44;5057566;28;45356;-81
2022/09/02 10:34:40;;;;;;;;;16.00;13.75;;;;;24.28;50.41;100938.94;5038287;28;45471;-82
2022/09/02 10:37:21;;;;;;;;;21.00;16.75;;;;;24.31;51.25;100937.84;5074484;27;46835;-80
2022/09/02 10:39:56;;;;;;;;;18.25;15.00;;;;;24.33;49.95;100942.06;5068890;27;47380;-85
2022/09/02 10:42:33;;;;;;;;;15.00;14.50;;;;;24.29;50.27;100939.78;5035440;28;45413;-81
2022/09/02 10:45:05;;;;;;;;;18.00;13.25;;;;;24.27;51.56;100937.25;5029144;28;45482;-81
2022/09/02 10:47:39;;;;;;;;;16.00;16.00;;;;;24.24;50.29;100934.84;5039610;28;45424;-81
2022/09/02 10:50:25;;;;;;;;;18.25;15.50;;;;;24.32;50.96;100928.91;5038202;28;74674;-81
2022/09/02 10:53:15;;;;;;;;;16.25;16.00;;;;;24.40;49.91;100926.41;5059210;28;45809;-81
2022/09/02 10:55:53;;;;;;;;;21.00;17.75;;;;;24.45;50.56;100928.69;5077853;27;45348;-81
2022/09/02 10:58:35;;;;;;;;;15.25;15.00;;;;;24.39;49.78;100923.91;5057140;28;45296;-81
2022/09/02 11:01:02;;;;;;;;;20.00;18.75;;;;;24.29;49.83;100924.69;5039392;28;46821;-80
2022/09/02 11:03:41;;;;;;;;;20.25;16.25;;;;;24.19;50.60;100923.75;5056089;28;45317;-81
2022/09/02 11:06:12;;;;;;;;;18.50;16.25;;;;;24.09;50.47;100928.13;5041162;28;45332;-81
2022/09/02 11:08:38;;;;;;;;;19.50;17.50;;;;;23.92;50.81;100926.88;5077809;28;45337;-82
2022/09/02 11:11:14;;;;;;;;;17.25;15.25;;;;;23.74;50.64;100913.28;5075756;28;45970;-81
2022/09/02 11:14:06;;;;;;;;;22.75;20.25;;;;;23.61;50.86;100916.09;5039122;28;45396;-81
2022/09/02 11:16:31;;;;;;;;;18.50;16.75;;;;;23.54;51.76;100910.41;5044527;28;45435;-80
2022/09/02 11:19:10;;;;;;;;;20.00;18.33;;;;;23.47;51.92;100914.53;5077610;28;45368;-80
2022/09/02 11:21:41;;;;;;;;;20.00;17.75;;;;;23.46;51.70;100912.84;5058404;28;46461;-81
2022/09/02 11:24:44;;;;;;;;;17.75;15.75;;;;;23.44;52.25;100906.81;5056405;28;45455;-82